sensor_id;sensor_type;location;lat;lon;timestamp;temperature;humidity
66102;HTU21D;52883;51.094;5.880;2022-12-16T00:00:22;-8.39;118.99
66102;HTU21D;52883;51.094;5.880;2022-12-16T00:02:48;-8.35;118.99
66102;HTU21D;52883;51.094;5.880;2022-12-16T00:05:13;-8.34;118.99
66102;HTU21D;52883;51.094;5.880;2022-12-16T00:07:42;-8.29;118.99
66102;HTU21D;52883;51.094;5.880;2022-12-16T00:10:08;-8.25;118.99
66102;HTU21D;52883;51.094;5.880;2022-12-16T00:12:34;-8.21;118.99
66102;HTU21D;52883;51.094;5.880;2022-12-16T00:15:00;-8.18;118.99
66102;HTU21D;52883;51.094;5.880;2022-12-16T00:17:25;-8.18;118.99
66102;HTU21D;52883;51.094;5.880;2022-12-16T00:19:51;-8.10;118.99
66102;HTU21D;52883;51.094;5.880;2022-12-16T00:22:17;-7.99;118.99
66102;HTU21D;52883;51.094;5.880;2022-12-16T00:24:42;-8.04;118.99
66102;HTU21D;52883;51.094;5.880;2022-12-16T00:27:08;-8.20;118.99
66102;HTU21D;52883;51.094;5.880;2022-12-16T00:29:34;-8.36;118.99
66102;HTU21D;52883;51.094;5.880;2022-12-16T00:32:02;-8.48;118.99
66102;HTU21D;52883;51.094;5.880;2022-12-16T00:34:28;-8.49;118.99
66102;HTU21D;52883;51.094;5.880;2022-12-16T00:36:54;-8.45;118.99
66102;HTU21D;52883;51.094;5.880;2022-12-16T00:39:19;-8.27;118.99
66102;HTU21D;52883;51.094;5.880;2022-12-16T00:41:45;-8.22;118.99
66102;HTU21D;52883;51.094;5.880;2022-12-16T00:44:13;-8.15;118.99
66102;HTU21D;52883;51.094;5.880;2022-12-16T00:46:38;-8.08;118.99
66102;HTU21D;52883;51.094;5.880;2022-12-16T00:49:04;-8.09;118.99
66102;HTU21D;52883;51.094;5.880;2022-12-16T00:51:30;-8.21;118.99
66102;HTU21D;52883;51.094;5.880;2022-12-16T00:53:56;-8.37;118.99
66102;HTU21D;52883;51.094;5.880;2022-12-16T00:56:21;-8.55;118.99
66102;HTU21D;52883;51.094;5.880;2022-12-16T00:58:47;-8.71;118.99
66102;HTU21D;52883;51.094;5.880;2022-12-16T01:01:13;-8.79;118.99
66102;HTU21D;52883;51.094;5.880;2022-12-16T01:03:39;-8.67;118.99
66102;HTU21D;52883;51.094;5.880;2022-12-16T01:06:14;-8.50;118.99
66102;HTU21D;52883;51.094;5.880;2022-12-16T01:08:40;-8.41;118.99
66102;HTU21D;52883;51.094;5.880;2022-12-16T01:11:17;-8.54;118.99
66102;HTU21D;52883;51.094;5.880;2022-12-16T01:13:44;-8.66;118.99
66102;HTU21D;52883;51.094;5.880;2022-12-16T01:16:10;-8.72;118.99
66102;HTU21D;52883;51.094;5.880;2022-12-16T01:18:36;-8.82;118.99
66102;HTU21D;52883;51.094;5.880;2022-12-16T01:21:04;-8.78;118.99
66102;HTU21D;52883;51.094;5.880;2022-12-16T01:23:30;-8.74;118.99
66102;HTU21D;52883;51.094;5.880;2022-12-16T01:25:58;-8.75;118.99
66102;HTU21D;52883;51.094;5.880;2022-12-16T01:28:26;-8.73;118.99
66102;HTU21D;52883;51.094;5.880;2022-12-16T01:30:56;-8.77;118.99
66102;HTU21D;52883;51.094;5.880;2022-12-16T01:33:31;-8.69;118.99
66102;HTU21D;52883;51.094;5.880;2022-12-16T01:36:07;-8.37;118.99
66102;HTU21D;52883;51.094;5.880;2022-12-16T01:38:34;-8.22;118.99
66102;HTU21D;52883;51.094;5.880;2022-12-16T01:41:00;-8.07;118.99
66102;HTU21D;52883;51.094;5.880;2022-12-16T01:43:28;-7.94;118.99
66102;HTU21D;52883;51.094;5.880;2022-12-16T01:46:22;-7.79;118.99
66102;HTU21D;52883;51.094;5.880;2022-12-16T01:48:56;-7.60;118.99
66102;HTU21D;52883;51.094;5.880;2022-12-16T01:51:36;-7.45;118.99
66102;HTU21D;52883;51.094;5.880;2022-12-16T01:54:09;-7.31;118.99
66102;HTU21D;52883;51.094;5.880;2022-12-16T01:56:42;-7.20;118.99
66102;HTU21D;52883;51.094;5.880;2022-12-16T01:59:13;-7.15;118.99
66102;HTU21D;52883;51.094;5.880;2022-12-16T02:01:40;-7.12;118.99
66102;HTU21D;52883;51.094;5.880;2022-12-16T02:04:06;-7.11;118.99
66102;HTU21D;52883;51.094;5.880;2022-12-16T02:06:32;-7.18;118.99
66102;HTU21D;52883;51.094;5.880;2022-12-16T02:09:01;-7.24;118.99
66102;HTU21D;52883;51.094;5.880;2022-12-16T02:12:08;-7.25;118.99
66102;HTU21D;52883;51.094;5.880;2022-12-16T02:14:59;-7.27;118.99
66102;HTU21D;52883;51.094;5.880;2022-12-16T02:17:43;-7.30;118.99
66102;HTU21D;52883;51.094;5.880;2022-12-16T02:20:35;-7.39;118.99
66102;HTU21D;52883;51.094;5.880;2022-12-16T02:32:17;-7.97;118.99
66102;HTU21D;52883;51.094;5.880;2022-12-16T02:35:11;-8.09;118.99
66102;HTU21D;52883;51.094;5.880;2022-12-16T02:37:50;-8.06;118.99
66102;HTU21D;52883;51.094;5.880;2022-12-16T02:40:22;-7.96;118.99
66102;HTU21D;52883;51.094;5.880;2022-12-16T02:43:02;-7.98;118.99
66102;HTU21D;52883;51.094;5.880;2022-12-16T02:45:30;-8.05;118.99
66102;HTU21D;52883;51.094;5.880;2022-12-16T02:47:56;-8.09;118.99
66102;HTU21D;52883;51.094;5.880;2022-12-16T02:50:27;-8.06;118.99
66102;HTU21D;52883;51.094;5.880;2022-12-16T02:52:57;-8.03;118.99
66102;HTU21D;52883;51.094;5.880;2022-12-16T02:55:40;-7.94;118.99
66102;HTU21D;52883;51.094;5.880;2022-12-16T02:58:17;-7.93;118.99
66102;HTU21D;52883;51.094;5.880;2022-12-16T03:01:05;-7.90;118.99
66102;HTU21D;52883;51.094;5.880;2022-12-16T03:03:53;-7.82;118.99
66102;HTU21D;52883;51.094;5.880;2022-12-16T03:06:23;-7.77;118.99
66102;HTU21D;52883;51.094;5.880;2022-12-16T03:08:57;-7.74;118.99
66102;HTU21D;52883;51.094;5.880;2022-12-16T03:11:27;-7.70;118.99
66102;HTU21D;52883;51.094;5.880;2022-12-16T03:13:55;-7.77;118.99
66102;HTU21D;52883;51.094;5.880;2022-12-16T03:16:27;-7.81;118.99
66102;HTU21D;52883;51.094;5.880;2022-12-16T03:18:58;-7.83;118.99
66102;HTU21D;52883;51.094;5.880;2022-12-16T03:21:30;-7.84;118.99
66102;HTU21D;52883;51.094;5.880;2022-12-16T03:24:06;-7.83;118.99
66102;HTU21D;52883;51.094;5.880;2022-12-16T03:29:11;-7.95;118.99
66102;HTU21D;52883;51.094;5.880;2022-12-16T03:31:57;-7.87;118.99
66102;HTU21D;52883;51.094;5.880;2022-12-16T03:37:08;-8.05;118.99
66102;HTU21D;52883;51.094;5.880;2022-12-16T03:39:46;-7.96;118.99
66102;HTU21D;52883;51.094;5.880;2022-12-16T03:42:14;-7.90;118.99
66102;HTU21D;52883;51.094;5.880;2022-12-16T03:44:42;-7.98;118.99
66102;HTU21D;52883;51.094;5.880;2022-12-16T03:47:08;-8.11;118.99
66102;HTU21D;52883;51.094;5.880;2022-12-16T03:49:36;-8.12;118.99
66102;HTU21D;52883;51.094;5.880;2022-12-16T03:52:01;-8.13;118.99
66102;HTU21D;52883;51.094;5.880;2022-12-16T03:54:27;-8.05;118.99
66102;HTU21D;52883;51.094;5.880;2022-12-16T03:56:53;-8.00;118.99
66102;HTU21D;52883;51.094;5.880;2022-12-16T03:59:18;-7.95;118.99
66102;HTU21D;52883;51.094;5.880;2022-12-16T04:01:44;-7.93;118.99
66102;HTU21D;52883;51.094;5.880;2022-12-16T04:04:11;-7.99;118.99
66102;HTU21D;52883;51.094;5.880;2022-12-16T04:06:36;-8.06;118.99
66102;HTU21D;52883;51.094;5.880;2022-12-16T04:09:02;-8.12;118.99
66102;HTU21D;52883;51.094;5.880;2022-12-16T04:11:28;-8.14;118.99
66102;HTU21D;52883;51.094;5.880;2022-12-16T04:14:12;-8.23;118.99
66102;HTU21D;52883;51.094;5.880;2022-12-16T04:16:56;-8.35;118.99
66102;HTU21D;52883;51.094;5.880;2022-12-16T04:19:43;-8.49;118.99
66102;HTU21D;52883;51.094;5.880;2022-12-16T04:22:35;-8.51;118.99
66102;HTU21D;52883;51.094;5.880;2022-12-16T04:25:25;-8.43;118.99
66102;HTU21D;52883;51.094;5.880;2022-12-16T04:27:52;-8.37;118.99
66102;HTU21D;52883;51.094;5.880;2022-12-16T04:30:19;-8.31;118.99
66102;HTU21D;52883;51.094;5.880;2022-12-16T04:33:12;-8.28;118.99
66102;HTU21D;52883;51.094;5.880;2022-12-16T04:35:57;-8.34;118.99
66102;HTU21D;52883;51.094;5.880;2022-12-16T04:38:41;-8.51;118.99
66102;HTU21D;52883;51.094;5.880;2022-12-16T04:41:25;-8.51;118.99
66102;HTU21D;52883;51.094;5.880;2022-12-16T04:44:10;-8.48;118.99
66102;HTU21D;52883;51.094;5.880;2022-12-16T04:46:54;-8.34;118.99
66102;HTU21D;52883;51.094;5.880;2022-12-16T04:49:39;-8.00;118.99
66102;HTU21D;52883;51.094;5.880;2022-12-16T04:52:23;-7.72;118.99
66102;HTU21D;52883;51.094;5.880;2022-12-16T04:55:09;-7.40;118.99
66102;HTU21D;52883;51.094;5.880;2022-12-16T04:57:56;-7.10;118.99
66102;HTU21D;52883;51.094;5.880;2022-12-16T05:00:41;-6.87;118.99
66102;HTU21D;52883;51.094;5.880;2022-12-16T05:03:26;-6.65;118.99
66102;HTU21D;52883;51.094;5.880;2022-12-16T05:06:11;-6.41;118.99
66102;HTU21D;52883;51.094;5.880;2022-12-16T05:08:56;-6.18;118.99
66102;HTU21D;52883;51.094;5.880;2022-12-16T05:11:40;-5.92;118.99
66102;HTU21D;52883;51.094;5.880;2022-12-16T05:14:24;-5.75;118.99
66102;HTU21D;52883;51.094;5.880;2022-12-16T05:17:09;-5.59;118.99
66102;HTU21D;52883;51.094;5.880;2022-12-16T05:19:53;-5.47;118.99
66102;HTU21D;52883;51.094;5.880;2022-12-16T05:22:37;-5.32;118.99
66102;HTU21D;52883;51.094;5.880;2022-12-16T05:25:22;-5.20;118.99
66102;HTU21D;52883;51.094;5.880;2022-12-16T05:28:06;-5.09;118.99
66102;HTU21D;52883;51.094;5.880;2022-12-16T05:30:51;-5.04;118.99
66102;HTU21D;52883;51.094;5.880;2022-12-16T05:33:35;-4.97;118.99
66102;HTU21D;52883;51.094;5.880;2022-12-16T05:36:20;-4.87;118.99
66102;HTU21D;52883;51.094;5.880;2022-12-16T05:39:04;-4.78;118.99
66102;HTU21D;52883;51.094;5.880;2022-12-16T05:41:49;-4.71;118.99
66102;HTU21D;52883;51.094;5.880;2022-12-16T05:44:33;-4.60;118.99
66102;HTU21D;52883;51.094;5.880;2022-12-16T05:47:18;-4.51;118.99
66102;HTU21D;52883;51.094;5.880;2022-12-16T05:50:03;-4.44;118.99
66102;HTU21D;52883;51.094;5.880;2022-12-16T05:52:53;-4.36;118.99
66102;HTU21D;52883;51.094;5.880;2022-12-16T05:55:38;-4.26;118.99
66102;HTU21D;52883;51.094;5.880;2022-12-16T05:58:23;-4.14;118.99
66102;HTU21D;52883;51.094;5.880;2022-12-16T06:01:07;-4.07;118.99
66102;HTU21D;52883;51.094;5.880;2022-12-16T06:03:51;-3.99;118.99
66102;HTU21D;52883;51.094;5.880;2022-12-16T06:06:36;-3.94;118.99
66102;HTU21D;52883;51.094;5.880;2022-12-16T06:09:20;-3.89;118.99
66102;HTU21D;52883;51.094;5.880;2022-12-16T06:12:05;-3.82;118.99
66102;HTU21D;52883;51.094;5.880;2022-12-16T06:14:52;-3.75;118.99
66102;HTU21D;52883;51.094;5.880;2022-12-16T06:17:41;-3.68;118.99
66102;HTU21D;52883;51.094;5.880;2022-12-16T06:20:25;-3.64;118.99
66102;HTU21D;52883;51.094;5.880;2022-12-16T06:23:10;-3.57;118.99
66102;HTU21D;52883;51.094;5.880;2022-12-16T06:25:54;-3.56;118.99
66102;HTU21D;52883;51.094;5.880;2022-12-16T06:28:38;-3.52;118.99
66102;HTU21D;52883;51.094;5.880;2022-12-16T06:31:23;-3.46;118.99
66102;HTU21D;52883;51.094;5.880;2022-12-16T06:34:07;-3.41;118.99
66102;HTU21D;52883;51.094;5.880;2022-12-16T06:36:52;-3.37;118.99
66102;HTU21D;52883;51.094;5.880;2022-12-16T06:39:36;-3.33;118.99
66102;HTU21D;52883;51.094;5.880;2022-12-16T06:42:20;-3.28;118.99
66102;HTU21D;52883;51.094;5.880;2022-12-16T06:45:05;-3.22;118.99
66102;HTU21D;52883;51.094;5.880;2022-12-16T06:47:49;-3.17;118.99
66102;HTU21D;52883;51.094;5.880;2022-12-16T06:50:33;-3.13;118.99
66102;HTU21D;52883;51.094;5.880;2022-12-16T06:53:17;-3.09;118.99
66102;HTU21D;52883;51.094;5.880;2022-12-16T06:56:02;-3.04;118.99
66102;HTU21D;52883;51.094;5.880;2022-12-16T06:58:46;-2.96;118.99
66102;HTU21D;52883;51.094;5.880;2022-12-16T07:01:31;-2.91;118.99
66102;HTU21D;52883;51.094;5.880;2022-12-16T07:04:15;-2.89;118.99
66102;HTU21D;52883;51.094;5.880;2022-12-16T07:07:00;-2.86;118.99
66102;HTU21D;52883;51.094;5.880;2022-12-16T07:09:44;-2.82;118.99
66102;HTU21D;52883;51.094;5.880;2022-12-16T07:12:29;-2.78;118.99
66102;HTU21D;52883;51.094;5.880;2022-12-16T07:15:13;-2.76;118.99
66102;HTU21D;52883;51.094;5.880;2022-12-16T07:17:57;-2.73;118.99
66102;HTU21D;52883;51.094;5.880;2022-12-16T07:20:42;-2.68;118.99
66102;HTU21D;52883;51.094;5.880;2022-12-16T07:23:26;-2.67;118.99
66102;HTU21D;52883;51.094;5.880;2022-12-16T07:26:10;-2.66;118.99
66102;HTU21D;52883;51.094;5.880;2022-12-16T07:28:54;-2.62;118.99
66102;HTU21D;52883;51.094;5.880;2022-12-16T07:31:38;-2.58;118.99
66102;HTU21D;52883;51.094;5.880;2022-12-16T07:34:23;-2.53;118.99
66102;HTU21D;52883;51.094;5.880;2022-12-16T07:37:07;-2.50;118.99
66102;HTU21D;52883;51.094;5.880;2022-12-16T07:39:52;-2.43;118.99
66102;HTU21D;52883;51.094;5.880;2022-12-16T07:42:36;-2.35;118.99
66102;HTU21D;52883;51.094;5.880;2022-12-16T07:45:20;-2.24;118.99
66102;HTU21D;52883;51.094;5.880;2022-12-16T07:48:05;-2.17;118.99
66102;HTU21D;52883;51.094;5.880;2022-12-16T07:50:49;-2.15;118.99
66102;HTU21D;52883;51.094;5.880;2022-12-16T07:53:33;-2.13;118.99
66102;HTU21D;52883;51.094;5.880;2022-12-16T07:56:20;-2.07;118.99
66102;HTU21D;52883;51.094;5.880;2022-12-16T07:59:05;-2.02;118.99
66102;HTU21D;52883;51.094;5.880;2022-12-16T08:01:49;-1.97;118.99
66102;HTU21D;52883;51.094;5.880;2022-12-16T08:04:34;-1.92;118.99
66102;HTU21D;52883;51.094;5.880;2022-12-16T08:07:18;-1.85;118.99
66102;HTU21D;52883;51.094;5.880;2022-12-16T08:10:02;-1.84;118.99
66102;HTU21D;52883;51.094;5.880;2022-12-16T08:12:47;-1.80;118.99
66102;HTU21D;52883;51.094;5.880;2022-12-16T08:15:31;-1.79;118.99
66102;HTU21D;52883;51.094;5.880;2022-12-16T08:18:16;-1.75;118.99
66102;HTU21D;52883;51.094;5.880;2022-12-16T08:21:00;-1.72;118.99
66102;HTU21D;52883;51.094;5.880;2022-12-16T08:23:44;-1.70;118.99
66102;HTU21D;52883;51.094;5.880;2022-12-16T08:26:29;-1.65;118.99
66102;HTU21D;52883;51.094;5.880;2022-12-16T08:29:13;-1.57;118.99
66102;HTU21D;52883;51.094;5.880;2022-12-16T08:31:58;-1.48;118.99
66102;HTU21D;52883;51.094;5.880;2022-12-16T08:34:42;-1.42;118.99
66102;HTU21D;52883;51.094;5.880;2022-12-16T08:37:26;-1.40;118.99
66102;HTU21D;52883;51.094;5.880;2022-12-16T08:40:11;-1.41;118.99
66102;HTU21D;52883;51.094;5.880;2022-12-16T08:42:55;-1.40;118.99
66102;HTU21D;52883;51.094;5.880;2022-12-16T08:45:40;-1.34;118.99
66102;HTU21D;52883;51.094;5.880;2022-12-16T08:48:27;-1.34;118.99
66102;HTU21D;52883;51.094;5.880;2022-12-16T08:51:12;-1.36;118.99
66102;HTU21D;52883;51.094;5.880;2022-12-16T08:53:56;-1.39;118.99
66102;HTU21D;52883;51.094;5.880;2022-12-16T08:56:41;-1.38;118.99
66102;HTU21D;52883;51.094;5.880;2022-12-16T08:59:25;-1.35;118.99
66102;HTU21D;52883;51.094;5.880;2022-12-16T09:02:10;-1.29;118.99
66102;HTU21D;52883;51.094;5.880;2022-12-16T09:04:54;-1.26;118.99
66102;HTU21D;52883;51.094;5.880;2022-12-16T09:07:38;-1.20;118.99
66102;HTU21D;52883;51.094;5.880;2022-12-16T09:10:23;-1.17;118.99
66102;HTU21D;52883;51.094;5.880;2022-12-16T09:13:10;-1.11;118.99
66102;HTU21D;52883;51.094;5.880;2022-12-16T09:15:54;-1.06;118.99
66102;HTU21D;52883;51.094;5.880;2022-12-16T09:18:38;-1.02;118.99
66102;HTU21D;52883;51.094;5.880;2022-12-16T09:21:22;-1.01;118.99
66102;HTU21D;52883;51.094;5.880;2022-12-16T09:24:07;-0.98;118.99
66102;HTU21D;52883;51.094;5.880;2022-12-16T09:26:51;-0.96;118.99
66102;HTU21D;52883;51.094;5.880;2022-12-16T09:29:36;-0.90;118.99
66102;HTU21D;52883;51.094;5.880;2022-12-16T09:32:20;-0.84;118.99
66102;HTU21D;52883;51.094;5.880;2022-12-16T09:35:05;-0.74;118.99
66102;HTU21D;52883;51.094;5.880;2022-12-16T09:37:49;-0.75;118.99
66102;HTU21D;52883;51.094;5.880;2022-12-16T09:40:37;-0.72;118.99
66102;HTU21D;52883;51.094;5.880;2022-12-16T09:46:33;-0.68;118.99
66102;HTU21D;52883;51.094;5.880;2022-12-16T09:52:31;-0.62;118.99
66102;HTU21D;52883;51.094;5.880;2022-12-16T09:55:27;-0.59;118.99
66102;HTU21D;52883;51.094;5.880;2022-12-16T09:58:14;-0.52;118.99
66102;HTU21D;52883;51.094;5.880;2022-12-16T10:00:59;-0.45;118.99
66102;HTU21D;52883;51.094;5.880;2022-12-16T10:03:44;-0.40;118.99
66102;HTU21D;52883;51.094;5.880;2022-12-16T10:07:07;-0.32;118.99
66102;HTU21D;52883;51.094;5.880;2022-12-16T10:16:35;-0.27;118.99
66102;HTU21D;52883;51.094;5.880;2022-12-16T10:19:47;-0.27;118.99
66102;HTU21D;52883;51.094;5.880;2022-12-16T10:22:41;-0.20;118.99
66102;HTU21D;52883;51.094;5.880;2022-12-16T10:25:55;-0.17;118.99
66102;HTU21D;52883;51.094;5.880;2022-12-16T10:28:45;-0.14;118.99
66102;HTU21D;52883;51.094;5.880;2022-12-16T10:31:31;-0.10;118.99
66102;HTU21D;52883;51.094;5.880;2022-12-16T10:34:20;-0.01;118.99
66102;HTU21D;52883;51.094;5.880;2022-12-16T10:37:15;0.10;118.99
66102;HTU21D;52883;51.094;5.880;2022-12-16T10:40:02;0.18;118.99
66102;HTU21D;52883;51.094;5.880;2022-12-16T10:42:53;0.24;118.99
66102;HTU21D;52883;51.094;5.880;2022-12-16T10:45:44;0.29;118.99
66102;HTU21D;52883;51.094;5.880;2022-12-16T10:48:31;0.38;118.99
66102;HTU21D;52883;51.094;5.880;2022-12-16T10:51:18;0.43;118.99
66102;HTU21D;52883;51.094;5.880;2022-12-16T11:00:12;0.54;118.99
66102;HTU21D;52883;51.094;5.880;2022-12-16T11:06:00;0.72;118.99
66102;HTU21D;52883;51.094;5.880;2022-12-16T11:08:45;0.76;118.99
66102;HTU21D;52883;51.094;5.880;2022-12-16T11:11:29;0.83;118.99
66102;HTU21D;52883;51.094;5.880;2022-12-16T11:14:23;0.94;118.99
66102;HTU21D;52883;51.094;5.880;2022-12-16T11:20:26;1.06;118.99
66102;HTU21D;52883;51.094;5.880;2022-12-16T11:26:10;1.07;118.99
66102;HTU21D;52883;51.094;5.880;2022-12-16T11:29:10;1.09;118.99
66102;HTU21D;52883;51.094;5.880;2022-12-16T11:32:02;1.13;118.99
66102;HTU21D;52883;51.094;5.880;2022-12-16T11:34:54;1.21;118.99
66102;HTU21D;52883;51.094;5.880;2022-12-16T11:37:43;1.19;118.99
66102;HTU21D;52883;51.094;5.880;2022-12-16T11:40:29;1.21;118.99
66102;HTU21D;52883;51.094;5.880;2022-12-16T11:43:17;1.24;118.99
66102;HTU21D;52883;51.094;5.880;2022-12-16T11:46:09;1.29;118.99
66102;HTU21D;52883;51.094;5.880;2022-12-16T11:49:05;1.37;118.99
66102;HTU21D;52883;51.094;5.880;2022-12-16T11:51:56;1.47;118.99
66102;HTU21D;52883;51.094;5.880;2022-12-16T11:58:01;1.49;118.99
66102;HTU21D;52883;51.094;5.880;2022-12-16T12:01:04;1.57;118.99
66102;HTU21D;52883;51.094;5.880;2022-12-16T12:03:53;1.61;118.99
66102;HTU21D;52883;51.094;5.880;2022-12-16T12:06:51;1.64;118.99
66102;HTU21D;52883;51.094;5.880;2022-12-16T12:09:53;1.66;118.99
66102;HTU21D;52883;51.094;5.880;2022-12-16T12:13:01;1.66;118.99
66102;HTU21D;52883;51.094;5.880;2022-12-16T12:16:17;1.68;118.99
66102;HTU21D;52883;51.094;5.880;2022-12-16T12:19:16;1.68;118.99
66102;HTU21D;52883;51.094;5.880;2022-12-16T12:22:38;1.63;118.99
66102;HTU21D;52883;51.094;5.880;2022-12-16T12:32:05;1.76;118.99
66102;HTU21D;52883;51.094;5.880;2022-12-16T12:38:17;1.81;118.99
66102;HTU21D;52883;51.094;5.880;2022-12-16T12:41:26;1.86;118.99
66102;HTU21D;52883;51.094;5.880;2022-12-16T12:47:07;2.05;118.99
66102;HTU21D;52883;51.094;5.880;2022-12-16T12:50:08;2.12;118.99
66102;HTU21D;52883;51.094;5.880;2022-12-16T12:59:20;2.50;118.99
66102;HTU21D;52883;51.094;5.880;2022-12-16T13:02:17;2.59;118.99
66102;HTU21D;52883;51.094;5.880;2022-12-16T13:05:03;2.64;118.99
66102;HTU21D;52883;51.094;5.880;2022-12-16T13:07:47;2.56;118.99
66102;HTU21D;52883;51.094;5.880;2022-12-16T13:10:35;2.57;118.99
66102;HTU21D;52883;51.094;5.880;2022-12-16T13:13:30;2.45;118.99
66102;HTU21D;52883;51.094;5.880;2022-12-16T13:22:28;2.26;118.99
66102;HTU21D;52883;51.094;5.880;2022-12-16T13:25:33;2.15;118.99
66102;HTU21D;52883;51.094;5.880;2022-12-16T13:28:32;2.05;118.99
66102;HTU21D;52883;51.094;5.880;2022-12-16T13:31:18;1.95;118.99
66102;HTU21D;52883;51.094;5.880;2022-12-16T13:34:27;1.91;118.99
66102;HTU21D;52883;51.094;5.880;2022-12-16T13:37:30;1.94;118.99
66102;HTU21D;52883;51.094;5.880;2022-12-16T13:40:20;1.97;118.99
66102;HTU21D;52883;51.094;5.880;2022-12-16T13:46:41;1.90;118.99
66102;HTU21D;52883;51.094;5.880;2022-12-16T13:58:35;1.83;118.99
66102;HTU21D;52883;51.094;5.880;2022-12-16T14:04:38;1.88;118.99
66102;HTU21D;52883;51.094;5.880;2022-12-16T14:07:25;1.88;118.99
66102;HTU21D;52883;51.094;5.880;2022-12-16T14:10:30;1.88;118.99
66102;HTU21D;52883;51.094;5.880;2022-12-16T14:13:20;1.94;118.99
66102;HTU21D;52883;51.094;5.880;2022-12-16T14:16:39;1.98;118.99
66102;HTU21D;52883;51.094;5.880;2022-12-16T14:22:57;1.99;118.99
66102;HTU21D;52883;51.094;5.880;2022-12-16T14:25:44;1.97;118.99
66102;HTU21D;52883;51.094;5.880;2022-12-16T14:28:32;1.96;118.99
66102;HTU21D;52883;51.094;5.880;2022-12-16T14:31:23;1.91;118.99
66102;HTU21D;52883;51.094;5.880;2022-12-16T14:34:23;1.88;118.99
66102;HTU21D;52883;51.094;5.880;2022-12-16T14:37:34;1.87;118.99
66102;HTU21D;52883;51.094;5.880;2022-12-16T14:43:18;1.75;118.99
66102;HTU21D;52883;51.094;5.880;2022-12-16T14:46:03;1.62;118.99
66102;HTU21D;52883;51.094;5.880;2022-12-16T14:48:49;1.57;118.99
66102;HTU21D;52883;51.094;5.880;2022-12-16T14:51:54;1.55;118.99
66102;HTU21D;52883;51.094;5.880;2022-12-16T14:54:42;1.60;118.99
66102;HTU21D;52883;51.094;5.880;2022-12-16T14:57:29;1.60;118.99
66102;HTU21D;52883;51.094;5.880;2022-12-16T15:00:16;1.57;118.99
66102;HTU21D;52883;51.094;5.880;2022-12-16T15:05:55;1.52;118.99
66102;HTU21D;52883;51.094;5.880;2022-12-16T15:09:00;1.51;118.99
66102;HTU21D;52883;51.094;5.880;2022-12-16T15:11:46;1.49;118.99
66102;HTU21D;52883;51.094;5.880;2022-12-16T15:14:36;1.41;118.99
66102;HTU21D;52883;51.094;5.880;2022-12-16T15:17:35;1.38;118.99
66102;HTU21D;52883;51.094;5.880;2022-12-16T15:20:25;1.33;118.99
66102;HTU21D;52883;51.094;5.880;2022-12-16T15:23:19;1.26;118.99
66102;HTU21D;52883;51.094;5.880;2022-12-16T15:26:05;1.20;118.99
66102;HTU21D;52883;51.094;5.880;2022-12-16T15:28:49;1.13;118.99
66102;HTU21D;52883;51.094;5.880;2022-12-16T15:31:36;1.14;118.99
66102;HTU21D;52883;51.094;5.880;2022-12-16T15:34:46;1.16;118.99
66102;HTU21D;52883;51.094;5.880;2022-12-16T15:37:37;1.17;118.99
66102;HTU21D;52883;51.094;5.880;2022-12-16T15:40:29;1.19;118.99
66102;HTU21D;52883;51.094;5.880;2022-12-16T15:43:29;1.22;118.99
66102;HTU21D;52883;51.094;5.880;2022-12-16T15:46:39;1.17;118.99
66102;HTU21D;52883;51.094;5.880;2022-12-16T15:49:38;1.14;118.99
66102;HTU21D;52883;51.094;5.880;2022-12-16T15:52:37;1.09;118.99
66102;HTU21D;52883;51.094;5.880;2022-12-16T15:58:26;1.11;118.99
66102;HTU21D;52883;51.094;5.880;2022-12-16T16:01:12;1.09;118.99
66102;HTU21D;52883;51.094;5.880;2022-12-16T16:03:58;1.08;118.99
66102;HTU21D;52883;51.094;5.880;2022-12-16T16:06:50;1.09;118.99
66102;HTU21D;52883;51.094;5.880;2022-12-16T16:09:37;1.10;118.99
66102;HTU21D;52883;51.094;5.880;2022-12-16T16:12:23;1.10;118.99
66102;HTU21D;52883;51.094;5.880;2022-12-16T16:15:10;1.11;118.99
66102;HTU21D;52883;51.094;5.880;2022-12-16T16:18:02;1.11;118.99
66102;HTU21D;52883;51.094;5.880;2022-12-16T16:20:48;1.12;118.99
66102;HTU21D;52883;51.094;5.880;2022-12-16T16:23:32;1.12;118.99
66102;HTU21D;52883;51.094;5.880;2022-12-16T16:26:20;1.09;118.99
66102;HTU21D;52883;51.094;5.880;2022-12-16T16:29:04;1.07;118.99
66102;HTU21D;52883;51.094;5.880;2022-12-16T16:31:48;1.05;118.99
66102;HTU21D;52883;51.094;5.880;2022-12-16T16:34:33;1.09;118.99
66102;HTU21D;52883;51.094;5.880;2022-12-16T16:37:19;1.09;118.99
66102;HTU21D;52883;51.094;5.880;2022-12-16T16:40:26;1.08;118.99
66102;HTU21D;52883;51.094;5.880;2022-12-16T16:43:11;1.10;118.99
66102;HTU21D;52883;51.094;5.880;2022-12-16T16:45:56;1.06;118.99
66102;HTU21D;52883;51.094;5.880;2022-12-16T16:48:41;1.08;118.99
66102;HTU21D;52883;51.094;5.880;2022-12-16T16:51:26;1.09;118.99
66102;HTU21D;52883;51.094;5.880;2022-12-16T16:54:10;1.07;118.99
66102;HTU21D;52883;51.094;5.880;2022-12-16T16:56:55;1.04;118.99
66102;HTU21D;52883;51.094;5.880;2022-12-16T16:59:39;1.03;118.99
66102;HTU21D;52883;51.094;5.880;2022-12-16T17:02:24;1.02;118.99
66102;HTU21D;52883;51.094;5.880;2022-12-16T17:05:10;0.97;118.99
66102;HTU21D;52883;51.094;5.880;2022-12-16T17:07:54;0.94;118.99
66102;HTU21D;52883;51.094;5.880;2022-12-16T17:10:40;0.91;118.99
66102;HTU21D;52883;51.094;5.880;2022-12-16T17:13:25;0.92;118.99
66102;HTU21D;52883;51.094;5.880;2022-12-16T17:16:11;0.94;118.99
66102;HTU21D;52883;51.094;5.880;2022-12-16T17:18:56;0.95;118.99
66102;HTU21D;52883;51.094;5.880;2022-12-16T17:21:41;0.86;118.99
66102;HTU21D;52883;51.094;5.880;2022-12-16T17:24:25;0.75;118.99
66102;HTU21D;52883;51.094;5.880;2022-12-16T17:27:18;0.68;118.99
66102;HTU21D;52883;51.094;5.880;2022-12-16T17:30:08;0.60;118.99
66102;HTU21D;52883;51.094;5.880;2022-12-16T17:32:53;0.58;118.99
66102;HTU21D;52883;51.094;5.880;2022-12-16T17:35:38;0.52;118.99
66102;HTU21D;52883;51.094;5.880;2022-12-16T17:38:22;0.50;118.99
66102;HTU21D;52883;51.094;5.880;2022-12-16T17:41:06;0.52;118.99
66102;HTU21D;52883;51.094;5.880;2022-12-16T17:43:52;0.58;118.99
66102;HTU21D;52883;51.094;5.880;2022-12-16T17:46:36;0.57;118.99
66102;HTU21D;52883;51.094;5.880;2022-12-16T17:49:20;0.54;118.99
66102;HTU21D;52883;51.094;5.880;2022-12-16T17:52:04;0.47;118.99
66102;HTU21D;52883;51.094;5.880;2022-12-16T17:54:48;0.38;118.99
66102;HTU21D;52883;51.094;5.880;2022-12-16T17:57:32;0.31;118.99
66102;HTU21D;52883;51.094;5.880;2022-12-16T18:00:17;0.21;118.99
66102;HTU21D;52883;51.094;5.880;2022-12-16T18:03:04;0.18;118.99
66102;HTU21D;52883;51.094;5.880;2022-12-16T18:05:55;0.17;118.99
66102;HTU21D;52883;51.094;5.880;2022-12-16T18:08:39;0.19;118.99
66102;HTU21D;52883;51.094;5.880;2022-12-16T18:11:23;0.23;118.99
66102;HTU21D;52883;51.094;5.880;2022-12-16T18:14:08;0.30;118.99
66102;HTU21D;52883;51.094;5.880;2022-12-16T18:16:52;0.33;118.99
66102;HTU21D;52883;51.094;5.880;2022-12-16T18:19:39;0.39;118.99
66102;HTU21D;52883;51.094;5.880;2022-12-16T18:22:23;0.42;118.99
66102;HTU21D;52883;51.094;5.880;2022-12-16T18:25:08;0.38;118.99
66102;HTU21D;52883;51.094;5.880;2022-12-16T18:27:52;0.35;118.99